createdAt,value
2019-05-05T00:01:38.747Z,52.90
2019-05-05T00:04:34.730Z,52.80
2019-05-05T00:07:09.755Z,52.00
2019-05-05T00:09:45.532Z,52.50
2019-05-05T00:12:22.690Z,52.20
2019-05-05T00:15:14.592Z,52.40
2019-05-05T00:17:50.692Z,51.20
2019-05-05T00:20:26.059Z,51.90
2019-05-05T00:23:01.922Z,51.70
2019-05-05T00:25:37.457Z,51.50
2019-05-05T00:28:14.317Z,52.20
2019-05-05T00:30:49.832Z,51.00
2019-05-05T00:33:25.578Z,51.30
2019-05-05T00:36:01.002Z,50.60
2019-05-05T00:38:36.901Z,50.40
2019-05-05T00:41:14.651Z,50.30
2019-05-05T00:43:48.162Z,50.20
2019-05-05T00:46:24.584Z,50.20
2019-05-05T00:48:59.971Z,49.60
2019-05-05T00:51:35.155Z,49.10
2019-05-05T00:54:15.213Z,49.60
2019-05-05T00:56:50.817Z,48.70
2019-05-05T00:59:34.794Z,48.50
2019-05-05T01:02:17.592Z,48.30
2019-05-05T01:04:59.450Z,47.90
2019-05-05T01:07:35.047Z,48.00
2019-05-05T01:10:14.315Z,47.70
2019-05-05T01:12:51.127Z,46.80
2019-05-05T01:15:25.810Z,47.80
2019-05-05T01:18:02.297Z,47.50
2019-05-05T01:20:38.825Z,47.70
2019-05-05T01:23:15.020Z,47.50
2019-05-05T01:25:50.739Z,47.60
2019-05-05T01:28:26.193Z,48.20
2019-05-05T01:31:03.091Z,48.60
2019-05-05T01:33:39.611Z,47.10
2019-05-05T01:36:16.258Z,47.20
2019-05-05T01:39:04.334Z,47.50
2019-05-05T01:41:49.178Z,48.20
2019-05-05T01:44:27.995Z,48.40
2019-05-05T01:47:05.218Z,48.00
2019-05-05T01:49:39.918Z,48.50
2019-05-05T01:52:15.622Z,47.70
2019-05-05T01:54:57.284Z,47.50
2019-05-05T01:57:34.453Z,47.50
2019-05-05T02:00:14.844Z,47.00
2019-05-05T02:02:52.652Z,47.30
2019-05-05T02:05:27.924Z,47.80
2019-05-05T02:08:05.832Z,47.60
2019-05-05T02:10:45.177Z,46.60
2019-05-05T02:13:20.269Z,45.90
2019-05-05T02:15:56.087Z,46.00
2019-05-05T02:18:32.084Z,46.30
2019-05-05T02:21:14.624Z,47.30
2019-05-05T02:23:55.018Z,45.20
2019-05-05T02:26:34.870Z,46.00
2019-05-05T02:29:24.723Z,45.20
2019-05-05T02:32:18.387Z,45.40
2019-05-05T02:34:59.273Z,44.80
2019-05-05T02:37:36.445Z,45.10
2019-05-05T02:40:17.816Z,45.10
2019-05-05T02:42:59.111Z,45.10
2019-05-05T02:46:07.635Z,44.80
2019-05-05T02:48:44.982Z,43.60
2019-05-05T02:51:25.502Z,43.70
2019-05-05T02:54:01.227Z,43.60
2019-05-05T02:56:54.194Z,43.50
2019-05-05T03:00:13.487Z,43.30
2019-05-05T03:02:50.374Z,43.30
2019-05-05T03:05:26.297Z,44.10
2019-05-05T03:08:05.070Z,43.80
2019-05-05T03:13:40.561Z,42.90
2019-05-05T03:16:24.953Z,43.10
2019-05-05T03:18:59.937Z,43.60
2019-05-05T03:21:38.239Z,42.70
2019-05-05T03:24:15.557Z,43.30
2019-05-05T03:26:53.734Z,42.00
2019-05-05T03:29:28.933Z,42.50
2019-05-05T03:32:05.687Z,42.30
2019-05-05T03:34:44.513Z,41.60
2019-05-05T03:37:20.932Z,41.20
2019-05-05T03:39:57.755Z,41.20
2019-05-05T03:42:39.291Z,40.70
2019-05-05T03:45:19.072Z,41.00
2019-05-05T03:47:59.017Z,40.60
2019-05-05T03:50:38.894Z,41.20
2019-05-05T03:53:17.276Z,41.00
2019-05-05T03:55:54.524Z,40.00
2019-05-05T03:58:30.517Z,39.40
2019-05-05T04:01:26.647Z,40.00
2019-05-05T04:04:41.483Z,39.40
2019-05-05T04:07:16.646Z,39.20
2019-05-05T04:09:54.292Z,40.10
2019-05-05T04:12:31.556Z,40.00
2019-05-05T04:15:17.148Z,40.10
2019-05-05T04:18:15.227Z,40.20
2019-05-05T04:20:50.768Z,40.70
2019-05-05T04:23:36.820Z,40.70
2019-05-05T04:26:16.163Z,40.80
2019-05-05T04:28:55.707Z,39.70
2019-05-05T04:31:34.537Z,40.70
2019-05-05T04:34:10.395Z,40.00
2019-05-05T04:36:55.982Z,39.80
2019-05-05T04:39:26.279Z,41.00
2019-05-05T04:42:11.011Z,39.90
2019-05-05T04:44:47.024Z,38.50
2019-05-05T04:47:28.078Z,37.90
2019-05-05T04:50:06.883Z,39.60
2019-05-05T04:52:43.949Z,39.00
2019-05-05T04:55:19.840Z,36.40
2019-05-05T04:58:04.505Z,37.00
2019-05-05T05:01:24.635Z,36.40
2019-05-05T05:07:36.653Z,37.60
2019-05-05T05:13:31.397Z,38.10
2019-05-05T05:16:09.926Z,38.50
2019-05-05T05:18:45.534Z,38.70
2019-05-05T05:21:23.705Z,38.80
2019-05-05T05:28:14.160Z,38.10
2019-05-05T05:30:48.317Z,38.20
2019-05-05T05:36:16.854Z,37.60
2019-05-05T05:42:01.183Z,38.50
2019-05-05T05:48:05.306Z,35.20
2019-05-05T05:51:14.642Z,35.20
2019-05-05T05:53:38.915Z,35.80
2019-05-05T05:56:18.435Z,35.40
2019-05-05T05:58:57.096Z,36.00
2019-05-05T06:01:37.960Z,35.50
2019-05-05T06:04:20.988Z,35.60
2019-05-05T06:06:56.371Z,34.20
2019-05-05T08:12:04.294Z,36.60
2019-05-05T08:14:45.517Z,34.70
2019-05-05T08:17:40.254Z,35.20
2019-05-05T08:20:19.420Z,34.20
2019-05-05T08:23:28.658Z,35.10
2019-05-05T08:26:04.589Z,36.20
2019-05-05T08:28:44.187Z,35.60
2019-05-05T08:31:22.340Z,36.60
2019-05-05T08:34:00.363Z,36.10
2019-05-05T08:36:39.417Z,36.10
2019-05-05T08:39:15.888Z,37.60
2019-05-05T08:41:56.571Z,38.00
2019-05-05T08:44:41.480Z,37.00
2019-05-05T08:47:17.650Z,39.30
2019-05-05T08:49:54.127Z,39.10
2019-05-05T08:52:29.821Z,39.10
2019-05-05T08:55:07.498Z,39.70
2019-05-05T08:57:45.350Z,41.00
2019-05-05T09:00:24.481Z,39.30
2019-05-05T09:03:03.573Z,39.60
2019-05-05T09:05:38.351Z,38.60
2019-05-05T09:08:14.077Z,40.40
2019-05-05T09:10:56.980Z,40.90
2019-05-05T09:13:33.875Z,40.80
2019-05-05T09:16:09.739Z,39.50
2019-05-05T09:19:01.212Z,41.40
2019-05-05T09:21:41.688Z,40.70
2019-05-05T09:24:24.846Z,40.90
2019-05-05T09:27:17.307Z,42.50
2019-05-05T09:30:00.657Z,40.20
2019-05-05T09:32:37.570Z,39.70
2019-05-05T09:35:15.169Z,41.30
2019-05-05T09:37:53.843Z,41.10
2019-05-05T09:40:33.498Z,41.20
2019-05-05T09:43:15.026Z,42.00
2019-05-05T09:45:54.452Z,41.30
2019-05-05T09:48:33.959Z,41.30
2019-05-05T09:51:10.154Z,41.60
2019-05-05T09:53:46.607Z,41.20
2019-05-05T09:56:23.829Z,42.30
2019-05-05T09:59:00.676Z,43.60
2019-05-05T10:01:37.313Z,45.60
2019-05-05T10:04:18.278Z,45.30
2019-05-05T10:06:55.450Z,47.10
2019-05-05T10:09:31.169Z,46.90
2019-05-05T10:12:06.905Z,47.40
2019-05-05T10:14:44.922Z,47.60
2019-05-05T10:17:24.461Z,44.40
2019-05-05T10:20:03.877Z,47.80
2019-05-05T10:22:39.024Z,48.80
2019-05-05T10:25:31.707Z,48.70
2019-05-05T10:28:09.337Z,48.90
2019-05-05T10:30:46.749Z,49.10
2019-05-05T10:33:27.535Z,46.10
2019-05-05T10:36:07.574Z,46.90
2019-05-05T10:38:46.996Z,46.80
2019-05-05T10:41:24.089Z,48.80
2019-05-05T10:44:03.671Z,49.50
2019-05-05T10:46:42.135Z,47.90
2019-05-05T10:49:19.480Z,47.70
2019-05-05T10:51:56.895Z,48.40
2019-05-05T10:54:43.279Z,50.50
2019-05-05T10:57:10.318Z,50.10
2019-05-05T10:59:48.385Z,48.60
2019-05-05T11:02:25.724Z,48.50
2019-05-05T11:05:04.083Z,50.50
2019-05-05T11:07:40.256Z,51.60
2019-05-05T11:10:17.030Z,51.50
2019-05-05T11:12:56.107Z,50.60
2019-05-05T11:15:33.529Z,51.20
2019-05-05T11:18:11.312Z,50.20
2019-05-05T11:20:50.473Z,49.50
2019-05-05T11:23:29.417Z,50.10
2019-05-05T11:26:06.388Z,51.90
2019-05-05T11:28:44.390Z,52.10
2019-05-05T11:31:23.919Z,47.60
2019-05-05T11:34:01.321Z,49.80
2019-05-05T11:36:40.086Z,48.90
2019-05-05T11:39:18.192Z,47.90
2019-05-05T11:41:56.726Z,48.70
2019-05-05T11:44:37.406Z,51.20
2019-05-05T11:47:13.986Z,51.00
2019-05-05T11:49:53.824Z,50.90
2019-05-05T11:52:29.664Z,50.40
2019-05-05T11:55:11.631Z,50.20
2019-05-05T11:57:43.768Z,49.10
2019-05-05T12:00:21.231Z,50.20
2019-05-05T12:03:09.886Z,50.10
2019-05-05T12:05:57.311Z,50.50
2019-05-05T12:08:37.918Z,51.00
2019-05-05T12:11:15.074Z,51.50
2019-05-05T12:13:54.431Z,52.00
2019-05-05T12:16:34.666Z,54.30
2019-05-05T12:19:13.768Z,52.80
2019-05-05T12:21:57.700Z,52.80
2019-05-05T12:24:37.178Z,52.60
2019-05-05T12:27:16.325Z,52.70
2019-05-05T12:29:54.452Z,54.20
2019-05-05T12:32:36.601Z,54.50
2019-05-05T12:35:14.938Z,54.00
2019-05-05T12:37:53.821Z,54.40
2019-05-05T12:40:34.788Z,55.20
2019-05-05T12:43:37.159Z,55.80
2019-05-05T12:46:30.632Z,55.80
2019-05-05T12:49:09.478Z,54.80
2019-05-05T12:51:47.448Z,55.00
2019-05-05T12:54:24.557Z,54.50
2019-05-05T12:57:00.876Z,54.40
2019-05-05T12:59:36.953Z,54.80
2019-05-05T13:02:14.777Z,55.30
2019-05-05T13:04:53.994Z,55.90
2019-05-05T13:07:31.258Z,57.00
2019-05-05T13:10:19.821Z,57.20
2019-05-05T13:12:55.919Z,55.70
2019-05-05T13:15:33.779Z,55.30
2019-05-05T13:18:14.032Z,55.40
2019-05-05T13:21:07.163Z,53.60
2019-05-05T13:24:04.355Z,55.90
2019-05-05T13:27:08.499Z,56.30
2019-05-05T13:29:45.241Z,53.80
2019-05-05T13:32:21.910Z,53.50
2019-05-05T13:35:00.864Z,53.10
2019-05-05T13:37:44.269Z,55.50
2019-05-05T13:40:28.658Z,52.60
2019-05-05T13:43:06.918Z,52.10
2019-05-05T13:46:01.258Z,51.60
2019-05-05T13:48:37.431Z,52.40
2019-05-05T13:51:17.799Z,53.80
2019-05-05T13:53:58.792Z,52.10
2019-05-05T13:56:40.268Z,51.50
2019-05-05T13:59:26.618Z,52.30
2019-05-05T14:02:13.793Z,52.40
2019-05-05T14:04:50.780Z,53.00
2019-05-05T14:07:28.002Z,52.90
2019-05-05T14:10:04.912Z,53.20
2019-05-05T14:12:43.762Z,55.20
2019-05-05T14:15:33.985Z,53.40
2019-05-05T14:18:19.270Z,54.10
2019-05-05T14:20:56.278Z,55.10
2019-05-05T14:26:36.358Z,55.20
2019-05-05T14:29:14.670Z,55.20
2019-05-05T14:31:57.117Z,52.10
2019-05-05T14:34:41.515Z,52.20
2019-05-05T14:37:34.042Z,54.90
2019-05-05T14:40:28.972Z,54.80
2019-05-05T14:43:07.715Z,54.20
2019-05-05T14:45:45.025Z,55.60
2019-05-05T14:48:24.186Z,55.70
2019-05-05T14:51:04.289Z,56.70
2019-05-05T14:53:44.483Z,55.70
2019-05-05T14:56:35.430Z,55.90
2019-05-05T14:59:03.871Z,54.90
2019-05-05T15:01:41.639Z,56.20
2019-05-05T15:04:36.154Z,56.30
2019-05-05T15:07:20.401Z,56.10
2019-05-05T15:10:23.957Z,55.40
2019-05-05T15:13:04.541Z,56.00
2019-05-05T15:18:35.564Z,57.30
2019-05-05T15:21:18.939Z,57.00
2019-05-05T15:23:57.259Z,57.10
2019-05-05T15:26:34.434Z,57.30
2019-05-05T15:29:18.956Z,56.50
2019-05-05T15:31:56.315Z,55.60
2019-05-05T15:34:47.676Z,55.70
2019-05-05T15:37:29.819Z,56.00
2019-05-05T15:43:18.662Z,56.90
2019-05-05T15:46:00.697Z,56.30
2019-05-05T15:48:39.506Z,56.80
2019-05-05T15:51:18.811Z,56.30
2019-05-05T15:53:56.911Z,56.60
2019-05-05T15:59:28.521Z,56.70
2019-05-05T16:02:14.001Z,56.80
2019-05-05T16:04:55.319Z,56.80
2019-05-05T16:07:33.922Z,56.90
2019-05-05T16:10:15.944Z,56.70
2019-05-05T16:12:54.677Z,57.20
2019-05-05T16:15:39.390Z,58.30
2019-05-05T16:18:32.827Z,58.60
2019-05-05T16:21:26.285Z,57.60
2019-05-05T16:24:05.803Z,58.00
2019-05-05T16:26:43.286Z,59.30
2019-05-05T16:29:23.760Z,59.60
2019-05-05T16:32:05.475Z,59.70
2019-05-05T16:34:41.985Z,60.40
2019-05-05T16:37:17.762Z,60.70
2019-05-05T16:39:54.963Z,61.40
2019-05-05T16:42:35.316Z,62.20
2019-05-05T16:45:13.670Z,62.20
2019-05-05T16:47:49.980Z,62.00
2019-05-05T16:50:31.815Z,62.60
2019-05-05T16:53:17.118Z,62.60
2019-05-05T16:55:53.937Z,62.40
2019-05-05T16:58:30.677Z,62.50
2019-05-05T17:01:08.434Z,63.80
2019-05-05T17:03:45.840Z,63.80
2019-05-05T17:06:24.377Z,64.70
2019-05-05T17:09:00.911Z,64.20
2019-05-05T17:11:37.657Z,64.30
2019-05-05T17:14:23.433Z,65.70
2019-05-05T17:17:08.965Z,65.20
2019-05-05T17:19:47.721Z,64.90
2019-05-05T17:22:35.390Z,65.70
2019-05-05T17:25:13.845Z,66.10
2019-05-05T17:27:54.405Z,66.10
2019-05-05T17:30:29.735Z,66.40
2019-05-05T17:33:05.614Z,66.60
2019-05-05T17:35:41.708Z,66.30
2019-05-05T17:38:18.879Z,66.80
2019-05-05T17:40:55.690Z,66.50
2019-05-05T17:43:34.049Z,66.90
2019-05-05T17:46:15.345Z,67.90
2019-05-05T17:48:55.928Z,68.10
2019-05-05T17:51:37.035Z,68.60
2019-05-05T17:54:33.908Z,69.60
2019-05-05T17:57:09.689Z,69.80
2019-05-05T17:59:45.769Z,69.00
2019-05-05T18:02:23.675Z,69.30
2019-05-05T18:04:59.624Z,69.20
2019-05-05T18:07:36.571Z,69.40
2019-05-05T18:10:26.231Z,69.10
2019-05-05T18:13:04.629Z,69.80
2019-05-05T18:15:54.407Z,70.10
2019-05-05T18:18:30.630Z,70.30
2019-05-05T18:21:08.293Z,70.90
2019-05-05T18:23:48.449Z,72.30
2019-05-05T18:26:26.861Z,72.20
2019-05-05T18:29:03.822Z,72.60
2019-05-05T18:31:39.274Z,72.50
2019-05-05T18:34:16.233Z,72.50
2019-05-05T18:36:54.453Z,73.20
2019-05-05T18:39:30.757Z,73.60
2019-05-05T18:42:13.814Z,72.80
2019-05-05T18:44:50.177Z,74.10
2019-05-05T18:47:28.578Z,74.60
2019-05-05T18:50:06.148Z,74.20
2019-05-05T18:52:44.553Z,74.50
2019-05-05T18:55:20.919Z,74.10
2019-05-05T18:57:57.675Z,74.30
2019-05-05T19:00:50.495Z,74.80
2019-05-05T19:03:28.282Z,75.60
2019-05-05T19:06:05.200Z,75.70
2019-05-05T19:08:51.921Z,75.60
2019-05-05T19:11:20.249Z,75.10
2019-05-05T19:13:57.146Z,75.20
2019-05-05T19:16:35.367Z,77.00
2019-05-05T19:19:10.953Z,77.00
2019-05-05T19:21:50.533Z,77.00
2019-05-05T19:24:28.569Z,76.80
2019-05-05T19:27:04.242Z,76.90
2019-05-05T19:29:40.917Z,77.40
2019-05-05T19:32:16.289Z,77.40
2019-05-05T19:34:54.242Z,77.30
2019-05-05T19:37:28.457Z,78.00
2019-05-05T19:40:06.193Z,77.60
2019-05-05T19:42:45.941Z,77.30
2019-05-05T19:45:24.082Z,77.40
2019-05-05T19:48:00.396Z,78.50
2019-05-05T19:50:38.639Z,77.90
2019-05-05T19:53:28.095Z,79.50
2019-05-05T19:56:04.639Z,81.10
2019-05-05T19:58:55.082Z,80.30
2019-05-05T20:01:31.588Z,80.20
2019-05-05T20:03:53.961Z,80.40
2019-05-05T20:06:36.581Z,80.70
2019-05-05T20:09:16.789Z,79.90
2019-05-05T20:11:54.346Z,80.30
2019-05-05T20:14:30.454Z,80.50
2019-05-05T20:17:14.638Z,80.80
2019-05-05T20:19:50.131Z,80.60
2019-05-05T20:22:26.571Z,79.80
2019-05-05T20:25:04.250Z,80.50
2019-05-05T20:27:39.477Z,79.80
2019-05-05T20:30:20.509Z,80.10
2019-05-05T20:33:00.384Z,79.80
2019-05-05T20:35:40.605Z,79.10
2019-05-05T20:38:21.025Z,79.80
2019-05-05T20:41:14.357Z,79.80
2019-05-05T20:43:53.991Z,79.90
2019-05-05T20:46:29.853Z,80.50
2019-05-05T20:49:05.587Z,81.10
2019-05-05T20:51:41.237Z,80.00
2019-05-05T20:54:17.032Z,79.70
2019-05-05T20:56:53.981Z,79.50
2019-05-05T20:59:31.147Z,79.50
2019-05-05T21:02:09.125Z,80.50
2019-05-05T21:04:46.137Z,80.50
2019-05-05T21:07:24.416Z,79.90
2019-05-05T21:09:58.852Z,80.20
2019-05-05T21:12:42.276Z,79.70
2019-05-05T21:15:13.033Z,79.60
2019-05-05T21:17:48.434Z,79.40
2019-05-05T21:20:24.622Z,79.80
2019-05-05T21:23:07.386Z,79.90
2019-05-05T21:26:00.989Z,80.40
2019-05-05T21:28:36.520Z,79.90
2019-05-05T21:31:14.346Z,79.70
2019-05-05T21:33:50.813Z,79.30
2019-05-05T21:36:26.670Z,79.70
2019-05-05T21:39:03.913Z,80.70
2019-05-05T21:41:37.964Z,80.40
2019-05-05T21:44:14.657Z,80.40
2019-05-05T21:46:51.103Z,80.60
2019-05-05T21:49:26.754Z,81.20
2019-05-05T21:52:07.869Z,80.30
2019-05-05T21:54:50.174Z,80.30
2019-05-05T21:57:31.386Z,80.60
2019-05-05T22:00:09.092Z,80.20
2019-05-05T22:02:46.014Z,79.60
2019-05-05T22:05:23.889Z,79.70
2019-05-05T22:07:58.588Z,79.60
2019-05-05T22:10:34.642Z,79.70
2019-05-05T22:13:10.061Z,79.40
2019-05-05T22:15:45.945Z,78.80
2019-05-05T22:18:21.440Z,78.70
2019-05-05T22:20:58.531Z,78.80
2019-05-05T22:23:36.609Z,78.40
2019-05-05T22:26:14.601Z,79.50
2019-05-05T22:28:49.957Z,79.90
2019-05-05T22:31:25.696Z,79.00
2019-05-05T22:34:05.100Z,79.80
2019-05-05T22:36:37.030Z,80.10
2019-05-05T22:39:16.383Z,80.00
2019-05-05T22:41:50.824Z,79.40
2019-05-05T22:44:26.770Z,78.90
2019-05-05T22:47:04.506Z,77.60
2019-05-05T22:49:39.466Z,78.70
2019-05-05T22:52:15.186Z,78.80
2019-05-05T22:54:50.702Z,78.60
2019-05-05T22:57:26.907Z,77.60
2019-05-05T23:00:03.765Z,77.80
2019-05-05T23:02:56.720Z,76.90
2019-05-05T23:05:50.126Z,76.20
2019-05-05T23:08:27.697Z,75.10
2019-05-05T23:11:04.081Z,75.20
2019-05-05T23:13:40.013Z,74.40
2019-05-05T23:16:16.500Z,75.90
2019-05-05T23:18:54.226Z,75.40
2019-05-05T23:21:28.625Z,73.60
2019-05-05T23:24:16.916Z,73.90
2019-05-05T23:26:54.623Z,73.30
2019-05-05T23:29:30.270Z,73.30
2019-05-05T23:32:06.245Z,73.90
2019-05-05T23:34:41.856Z,72.30
2019-05-05T23:37:17.810Z,72.90
2019-05-05T23:39:54.123Z,71.50
2019-05-05T23:42:29.961Z,72.50
2019-05-05T23:45:09.209Z,71.10
2019-05-05T23:47:45.060Z,70.90
2019-05-05T23:50:21.219Z,70.30
2019-05-05T23:52:58.538Z,69.90
2019-05-05T23:55:34.453Z,69.90
2019-05-05T23:58:10.575Z,69.30
